createdAt,value
2019-01-03T00:00:49.461Z,0.00
2019-01-03T00:01:49.436Z,0.00
2019-01-03T00:02:58.255Z,0.00
2019-01-03T00:04:53.989Z,0.00
2019-01-03T00:05:53.881Z,0.00
2019-01-03T00:06:53.889Z,0.00
2019-01-03T00:07:53.901Z,0.00
2019-01-03T00:08:53.907Z,0.00
2019-01-03T00:09:53.820Z,0.00
2019-01-03T00:10:53.860Z,0.00
2019-01-03T00:11:53.821Z,0.00
2019-01-03T00:12:53.779Z,0.00
2019-01-03T00:13:53.799Z,0.00
2019-01-03T00:14:53.779Z,0.00
2019-01-03T00:15:53.771Z,0.00
2019-01-03T00:16:53.766Z,0.00
2019-01-03T00:17:53.736Z,0.00
2019-01-03T00:18:53.744Z,0.00
2019-01-03T00:19:53.691Z,0.00
2019-01-03T00:20:53.668Z,0.00
2019-01-03T00:21:53.685Z,0.00
2019-01-03T00:22:53.687Z,0.00
2019-01-03T00:23:53.724Z,0.00
2019-01-03T00:25:03.857Z,0.00
2019-01-03T00:26:59.356Z,0.00
2019-01-03T00:27:59.066Z,0.00
2019-01-03T00:28:59.309Z,0.00
2019-01-03T00:29:59.039Z,0.00
2019-01-03T00:30:59.038Z,0.00
2019-01-03T00:31:59.066Z,0.00
2019-01-03T00:32:59.006Z,0.00
2019-01-03T00:33:59.007Z,0.00
2019-01-03T00:34:59.011Z,0.00
2019-01-03T00:35:58.970Z,0.00
2019-01-03T00:36:58.987Z,0.00
2019-01-03T00:37:58.954Z,0.00
2019-01-03T00:38:58.918Z,0.00
2019-01-03T00:39:58.916Z,0.00
2019-01-03T00:40:58.922Z,0.00
2019-01-03T00:41:58.910Z,0.00
2019-01-03T00:42:58.927Z,0.00
2019-01-03T00:43:58.867Z,0.00
2019-01-03T00:44:58.848Z,0.00
2019-01-03T00:45:58.864Z,0.00
2019-01-03T00:46:58.825Z,0.00
2019-01-03T00:47:58.801Z,0.00
2019-01-03T00:48:58.792Z,0.00
2019-01-03T00:49:58.792Z,0.00
2019-01-03T00:50:58.766Z,0.00
2019-01-03T00:51:58.790Z,0.00
2019-01-03T00:52:58.774Z,0.00
2019-01-03T00:53:58.723Z,0.00
2019-01-03T00:54:58.723Z,0.00
2019-01-03T00:55:58.697Z,0.00
2019-01-03T00:56:58.693Z,0.00
2019-01-03T00:57:58.711Z,0.00
2019-01-03T00:58:58.669Z,0.00
2019-01-03T00:59:58.641Z,0.00
2019-01-03T01:00:58.639Z,0.00
2019-01-03T01:01:58.633Z,0.00
2019-01-03T01:02:58.640Z,0.00
2019-01-03T01:03:58.584Z,0.00
2019-01-03T01:04:58.572Z,0.00
2019-01-03T01:05:58.604Z,0.00
2019-01-03T01:06:58.558Z,0.00
2019-01-03T01:07:58.532Z,0.00
2019-01-03T01:08:58.526Z,0.00
2019-01-03T01:09:58.536Z,0.00
2019-01-03T01:10:58.506Z,0.00
2019-01-03T01:11:58.495Z,0.00
2019-01-03T01:12:58.468Z,0.00
2019-01-03T01:13:58.479Z,0.00
2019-01-03T01:14:58.451Z,0.00
2019-01-03T01:15:58.445Z,0.00
2019-01-03T01:16:58.443Z,0.00
2019-01-03T01:17:58.402Z,0.00
2019-01-03T01:18:58.381Z,0.00
2019-01-03T01:19:58.388Z,0.00
2019-01-03T01:20:58.396Z,0.00
2019-01-03T01:21:58.413Z,0.00
2019-01-03T01:22:58.368Z,0.00
2019-01-03T01:23:58.335Z,0.00
2019-01-03T01:24:58.309Z,0.00
2019-01-03T01:25:58.333Z,0.00
2019-01-03T01:26:58.299Z,0.00
2019-01-03T01:28:07.808Z,0.00
2019-01-03T01:30:02.732Z,0.00
2019-01-03T01:31:02.706Z,0.00
2019-01-03T01:32:02.680Z,0.00
2019-01-03T01:33:02.666Z,0.00
2019-01-03T01:34:02.656Z,0.00
2019-01-03T01:35:02.660Z,0.00
2019-01-03T01:36:02.644Z,0.00
2019-01-03T01:37:02.644Z,0.00
2019-01-03T01:38:02.610Z,0.00
2019-01-03T01:39:02.606Z,0.00
2019-01-03T01:41:34.709Z,0.00
2019-01-03T01:42:34.700Z,0.00
2019-01-03T01:43:34.672Z,0.00
2019-01-03T01:44:34.702Z,0.00
2019-01-03T01:45:44.197Z,0.00
2019-01-03T01:47:39.103Z,0.00
2019-01-03T01:48:39.071Z,0.00
2019-01-03T01:49:39.061Z,0.00
2019-01-03T01:50:39.040Z,0.00
2019-01-03T01:51:39.046Z,0.00
2019-01-03T01:52:39.016Z,0.00
2019-01-03T01:53:39.007Z,0.00
2019-01-03T01:54:38.993Z,0.00
2019-01-03T01:55:38.982Z,0.00
2019-01-03T01:56:38.956Z,0.00
2019-01-03T01:57:38.975Z,0.00
2019-01-03T01:58:38.981Z,0.00
2019-01-03T01:59:38.928Z,0.00
2019-01-03T02:00:38.904Z,0.00
2019-01-03T02:01:38.890Z,0.00
2019-01-03T02:02:38.896Z,0.00
2019-01-03T02:03:38.869Z,0.00
2019-01-03T02:04:38.858Z,0.00
2019-01-03T02:05:38.864Z,0.00
2019-01-03T02:06:38.827Z,0.00
2019-01-03T02:07:38.827Z,0.00
2019-01-03T02:08:38.859Z,0.00
2019-01-03T02:09:38.825Z,0.00
2019-01-03T02:10:38.768Z,0.00
2019-01-03T02:11:38.760Z,0.00
2019-01-03T02:12:38.762Z,0.00
2019-01-03T02:13:38.721Z,0.00
2019-01-03T02:14:38.739Z,0.00
2019-01-03T02:15:38.692Z,0.00
2019-01-03T02:16:38.680Z,0.00
2019-01-03T02:17:38.706Z,0.00
2019-01-03T02:18:38.676Z,0.00
2019-01-03T02:19:38.684Z,0.00
2019-01-03T02:20:38.637Z,0.00
2019-01-03T02:21:38.626Z,0.00
2019-01-03T02:22:38.628Z,0.00
2019-01-03T02:23:38.596Z,0.00
2019-01-03T02:24:38.573Z,0.00
2019-01-03T02:25:38.552Z,0.00
2019-01-03T02:26:38.557Z,0.00
2019-01-03T02:27:38.545Z,0.00
2019-01-03T02:28:38.557Z,0.00
2019-01-03T02:29:38.494Z,0.00
2019-01-03T02:30:38.536Z,0.00
2019-01-03T02:31:38.509Z,0.00
2019-01-03T02:32:38.469Z,0.00
2019-01-03T02:33:38.459Z,0.00
2019-01-03T02:34:38.440Z,0.00
2019-01-03T02:35:38.448Z,0.00
2019-01-03T02:36:38.407Z,0.00
2019-01-03T02:37:38.407Z,0.00
2019-01-03T02:38:38.390Z,0.00
2019-01-03T02:39:38.369Z,0.00
2019-01-03T02:40:38.350Z,0.00
2019-01-03T02:41:38.354Z,0.00
2019-01-03T02:42:38.315Z,0.00
2019-01-03T02:43:38.339Z,0.00
2019-01-03T02:44:38.309Z,0.00
2019-01-03T02:45:38.277Z,0.00
2019-01-03T02:46:38.263Z,0.00
2019-01-03T02:47:38.276Z,0.00
2019-01-03T02:48:38.246Z,0.00
2019-01-03T02:49:38.232Z,0.00
2019-01-03T02:50:38.216Z,0.00
2019-01-03T02:51:38.207Z,0.00
2019-01-03T02:52:38.193Z,0.00
2019-01-03T02:53:38.161Z,0.00
2019-01-03T02:54:38.154Z,0.00
2019-01-03T02:55:38.152Z,0.00
2019-01-03T02:56:38.159Z,0.00
2019-01-03T02:57:38.106Z,0.00
2019-01-03T02:58:38.094Z,0.00
2019-01-03T03:13:53.786Z,0.00
2019-01-03T03:14:53.772Z,0.00
2019-01-03T03:16:59.250Z,0.00
2019-01-03T03:17:59.199Z,0.00
2019-01-03T03:20:03.794Z,0.00
2019-01-03T03:21:03.710Z,0.00
2019-01-03T03:22:03.683Z,0.00
2019-01-03T03:23:03.691Z,0.00
2019-01-03T03:24:03.655Z,0.00
2019-01-03T03:25:03.661Z,0.00
2019-01-03T03:26:03.625Z,0.00
2019-01-03T03:27:03.612Z,0.00
2019-01-03T03:28:03.593Z,0.00
2019-01-03T03:29:03.583Z,0.00
2019-01-03T03:30:03.566Z,0.00
2019-01-03T03:31:03.547Z,0.00
2019-01-03T03:32:03.548Z,0.00
2019-01-03T03:33:03.547Z,0.00
2019-01-03T03:34:03.510Z,0.00
2019-01-03T03:35:03.509Z,0.00
2019-01-03T03:36:03.474Z,0.00
2019-01-03T03:37:03.485Z,0.00
2019-01-03T03:38:03.477Z,0.00
2019-01-03T03:39:03.423Z,0.00
2019-01-03T03:40:03.441Z,0.00
2019-01-03T03:41:03.411Z,0.00
2019-01-03T03:42:03.408Z,0.00
2019-01-03T03:43:03.445Z,0.00
2019-01-03T03:44:03.368Z,0.00
2019-01-03T03:45:03.372Z,0.00
2019-01-03T03:46:03.367Z,0.00
2019-01-03T03:47:03.318Z,0.00
2019-01-03T03:48:03.308Z,0.00
2019-01-03T03:49:03.309Z,0.00
2019-01-03T03:50:03.268Z,0.00
2019-01-03T03:51:03.266Z,0.00
2019-01-03T03:52:03.240Z,0.00
2019-01-03T03:53:03.221Z,0.00
2019-01-03T03:54:03.237Z,0.00
2019-01-03T03:55:03.195Z,0.00
2019-01-03T03:56:03.181Z,0.00
2019-01-03T03:57:03.193Z,0.00
2019-01-03T03:58:03.156Z,0.00
2019-01-03T03:59:03.179Z,0.00
2019-01-03T04:00:03.170Z,0.00
2019-01-03T04:01:03.119Z,0.00
2019-01-03T04:02:03.143Z,0.00
2019-01-03T04:03:03.088Z,0.00
2019-01-03T04:04:03.072Z,0.00
2019-01-03T04:05:03.056Z,0.00
2019-01-03T04:06:03.058Z,0.00
2019-01-03T04:07:03.034Z,0.00
2019-01-03T04:08:03.092Z,0.00
2019-01-03T04:09:02.997Z,0.00
2019-01-03T04:10:03.005Z,0.00
2019-01-03T04:11:02.969Z,0.00
2019-01-03T04:12:02.986Z,0.00
2019-01-03T04:13:02.936Z,0.00
2019-01-03T04:14:11.580Z,0.00
2019-01-03T04:15:56.349Z,0.00
2019-01-03T04:16:56.295Z,0.00
2019-01-03T04:17:56.277Z,0.00
2019-01-03T04:19:04.923Z,0.00
2019-01-03T04:21:00.769Z,0.00
2019-01-03T04:22:10.228Z,0.00
2019-01-03T04:24:05.145Z,0.00
2019-01-03T04:25:05.130Z,0.00
2019-01-03T04:26:05.118Z,0.00
2019-01-03T04:27:05.113Z,0.00
2019-01-03T04:28:05.086Z,0.00
2019-01-03T04:29:05.089Z,0.00
2019-01-03T04:30:05.073Z,0.00
2019-01-03T04:31:05.041Z,0.00
2019-01-03T04:32:05.020Z,0.00
2019-01-03T04:33:05.049Z,0.00
2019-01-03T04:34:04.999Z,0.00
2019-01-03T04:35:05.009Z,0.00
2019-01-03T04:36:04.966Z,0.00
2019-01-03T04:37:04.957Z,0.00
2019-01-03T04:38:04.970Z,0.00
2019-01-03T04:39:04.916Z,0.00
2019-01-03T04:40:04.910Z,0.00
2019-01-03T04:41:04.893Z,0.00
2019-01-03T04:42:04.880Z,0.00
2019-01-03T04:43:04.902Z,0.00
2019-01-03T04:44:04.850Z,0.00
2019-01-03T04:45:04.846Z,0.00
2019-01-03T04:46:04.856Z,0.00
2019-01-03T04:47:04.807Z,0.00
2019-01-03T04:48:04.793Z,0.00
2019-01-03T04:49:04.788Z,0.00
2019-01-03T04:50:04.773Z,0.00
2019-01-03T04:51:04.746Z,0.00
2019-01-03T04:52:04.746Z,0.00
2019-01-03T04:53:04.719Z,0.00
2019-01-03T04:54:04.713Z,0.00
2019-01-03T04:55:04.690Z,0.00
2019-01-03T04:56:04.692Z,0.00
2019-01-03T04:57:04.656Z,0.00
2019-01-03T04:58:04.674Z,0.00
2019-01-03T04:59:04.632Z,0.00
2019-01-03T05:00:04.615Z,0.00
2019-01-03T05:01:04.614Z,0.00
2019-01-03T05:02:04.626Z,0.00
2019-01-03T05:03:04.586Z,0.00
2019-01-03T05:04:04.580Z,0.00
2019-01-03T05:05:04.571Z,0.00
2019-01-03T05:06:13.193Z,0.00
2019-01-03T05:08:19.000Z,0.00
2019-01-03T05:09:09.995Z,0.00
2019-01-03T05:11:49.377Z,0.00
2019-01-03T05:12:49.363Z,0.00
2019-01-03T05:13:49.468Z,0.00
2019-01-03T05:14:49.356Z,0.00
2019-01-03T05:15:49.315Z,0.00
2019-01-03T05:16:49.297Z,0.00
2019-01-03T05:17:49.277Z,0.00
2019-01-03T05:18:49.269Z,0.00
2019-01-03T05:19:49.258Z,0.00
2019-01-03T05:20:49.280Z,0.00
2019-01-03T05:21:49.222Z,0.00
2019-01-03T05:22:49.220Z,0.00
2019-01-03T05:23:49.186Z,0.00
2019-01-03T05:24:49.173Z,0.00
2019-01-03T05:25:49.189Z,0.00
2019-01-03T05:26:49.141Z,0.00
2019-01-03T05:27:49.132Z,0.00
2019-01-03T05:28:49.111Z,0.00
2019-01-03T05:29:49.131Z,0.00
2019-01-03T05:30:49.087Z,0.00
2019-01-03T05:31:49.121Z,0.00
2019-01-03T05:32:49.073Z,0.00
2019-01-03T05:33:49.035Z,0.00
2019-01-03T05:34:49.025Z,0.00
2019-01-03T05:35:49.021Z,0.00
2019-01-03T05:36:48.993Z,0.00
2019-01-03T05:37:49.006Z,0.00
2019-01-03T05:38:48.964Z,0.00
2019-01-03T05:39:48.948Z,0.00
2019-01-03T05:40:48.942Z,0.00
2019-01-03T05:41:48.938Z,0.00
2019-01-03T05:42:48.933Z,0.00
2019-01-03T05:43:48.898Z,0.00
2019-01-03T05:44:48.888Z,0.00
2019-01-03T05:45:48.856Z,0.00
2019-01-03T05:46:48.859Z,0.00
2019-01-03T05:47:48.837Z,0.00
2019-01-03T05:48:48.827Z,0.00
2019-01-03T05:49:48.806Z,0.00
2019-01-03T05:50:48.810Z,0.00
2019-01-03T05:51:48.774Z,0.00
2019-01-03T05:52:48.762Z,0.00
2019-01-03T05:53:48.799Z,0.00
2019-01-03T05:54:48.757Z,0.00
2019-01-03T05:55:48.721Z,0.00
2019-01-03T05:56:48.705Z,0.00
2019-01-03T05:57:48.726Z,0.00
2019-01-03T05:58:48.672Z,0.00
2019-01-03T05:59:48.673Z,0.00
2019-01-03T06:00:48.683Z,0.00
2019-01-03T06:01:48.629Z,0.00
2019-01-03T06:02:48.609Z,0.00
2019-01-03T06:03:48.609Z,0.00
2019-01-03T06:04:48.607Z,0.00
2019-01-03T06:05:48.577Z,0.00
2019-01-03T06:06:48.583Z,0.00
2019-01-03T06:07:48.546Z,0.00
2019-01-03T06:08:48.561Z,0.00
2019-01-03T06:09:48.526Z,0.00
2019-01-03T06:10:48.518Z,0.00
2019-01-03T06:11:48.494Z,0.00
2019-01-03T06:12:48.475Z,0.00
2019-01-03T06:13:48.476Z,0.00
2019-01-03T06:14:48.444Z,0.00
2019-01-03T06:15:48.470Z,0.00
2019-01-03T06:16:48.431Z,0.00
2019-01-03T06:17:48.399Z,0.00
2019-01-03T06:18:48.421Z,0.00
2019-01-03T06:19:48.393Z,0.00
2019-01-03T06:20:48.374Z,0.00
2019-01-03T06:21:48.341Z,0.00
2019-01-03T06:22:48.326Z,0.00
2019-01-03T06:23:48.329Z,0.00
2019-01-03T06:24:48.327Z,0.00
2019-01-03T06:25:48.290Z,0.00
2019-01-03T06:26:48.281Z,0.00
2019-01-03T06:27:48.254Z,0.00
2019-01-03T06:28:48.277Z,0.00
2019-01-03T06:29:48.254Z,0.00
2019-01-03T06:30:48.223Z,0.00
2019-01-03T06:31:48.223Z,0.00
2019-01-03T06:32:48.191Z,0.00
2019-01-03T06:33:48.186Z,0.00
2019-01-03T06:34:48.168Z,0.00
2019-01-03T06:35:48.147Z,0.00
2019-01-03T06:36:48.126Z,0.00
2019-01-03T06:37:48.109Z,0.00
2019-01-03T06:38:48.103Z,0.00
2019-01-03T06:39:48.098Z,0.00
2019-01-03T06:40:48.107Z,0.00
2019-01-03T06:41:48.074Z,0.00
2019-01-03T06:42:48.065Z,0.00
2019-01-03T06:43:48.059Z,0.00
2019-01-03T06:44:48.081Z,0.00
2019-01-03T06:45:48.033Z,0.00
2019-01-03T06:46:48.016Z,0.00
2019-01-03T06:47:47.997Z,0.00
2019-01-03T06:48:56.651Z,0.00
2019-01-03T06:50:52.453Z,0.00
2019-01-03T06:51:52.410Z,0.00
2019-01-03T06:52:52.374Z,0.00
2019-01-03T06:53:52.364Z,0.00
2019-01-03T06:56:56.837Z,0.00
2019-01-03T06:57:56.805Z,4.00
2019-01-03T06:58:56.775Z,4.00
2019-01-03T06:59:56.769Z,4.00
2019-01-03T07:01:04.450Z,0.00
2019-01-03T07:03:08.891Z,4.00
2019-01-03T07:04:09.885Z,4.00
2019-01-03T07:05:55.176Z,4.00
2019-01-03T07:06:54.872Z,4.00
2019-01-03T07:07:54.765Z,8.00
2019-01-03T07:08:54.767Z,4.00
2019-01-03T07:09:54.729Z,8.00
2019-01-03T07:10:54.727Z,8.00
2019-01-03T07:11:54.701Z,8.00
2019-01-03T07:12:54.701Z,12.00
2019-01-03T07:13:54.698Z,12.00
2019-01-03T07:14:54.666Z,12.00
2019-01-03T07:15:54.652Z,16.00
2019-01-03T07:16:54.651Z,12.00
2019-01-03T07:17:54.624Z,16.00
2019-01-03T07:18:54.628Z,16.00
2019-01-03T07:19:54.590Z,16.00
2019-01-03T07:20:54.596Z,20.00
2019-01-03T07:21:54.562Z,20.00
2019-01-03T07:22:54.546Z,20.00
2019-01-03T07:23:54.534Z,20.00
2019-01-03T07:24:54.516Z,16.00
2019-01-03T07:25:54.553Z,16.00
2019-01-03T07:26:54.490Z,16.00
2019-01-03T07:27:54.477Z,16.00
2019-01-03T07:28:54.517Z,20.00
2019-01-03T07:29:54.475Z,20.00
2019-01-03T07:30:54.438Z,16.00
2019-01-03T07:31:54.423Z,20.00
2019-01-03T07:32:54.430Z,20.00
2019-01-03T07:33:54.415Z,24.00
2019-01-03T07:34:54.393Z,20.00
2019-01-03T07:35:54.412Z,24.00
2019-01-03T07:36:54.369Z,28.00
2019-01-03T07:37:54.354Z,28.00
2019-01-03T07:38:54.325Z,28.00
2019-01-03T07:39:54.304Z,28.00
2019-01-03T07:40:54.310Z,32.00
2019-01-03T07:41:54.291Z,40.00
2019-01-03T07:42:54.290Z,44.00
2019-01-03T07:43:54.253Z,52.00
2019-01-03T07:44:54.266Z,60.00
2019-01-03T07:45:54.303Z,60.00
2019-01-03T07:46:54.206Z,68.00
2019-01-03T07:47:54.206Z,68.00
2019-01-03T07:48:54.214Z,72.00
2019-01-03T07:49:54.173Z,76.00
2019-01-03T07:50:54.155Z,80.00
2019-01-03T07:51:54.151Z,80.00
2019-01-03T07:52:54.339Z,80.00
2019-01-03T07:53:54.124Z,88.00
2019-01-03T07:54:54.095Z,96.00
2019-01-03T07:55:54.094Z,104.00
2019-01-03T07:56:54.099Z,112.00
2019-01-03T07:57:54.054Z,112.00
2019-01-03T07:58:54.091Z,112.00
2019-01-03T07:59:54.037Z,112.00
2019-01-03T08:00:54.062Z,108.00
2019-01-03T08:01:54.042Z,112.00
2019-01-03T08:02:54.006Z,112.00
2019-01-03T08:03:54.016Z,116.00
2019-01-03T08:04:54.109Z,112.00
2019-01-03T08:05:53.978Z,116.00
2019-01-03T08:06:53.971Z,116.00
2019-01-03T08:07:53.938Z,120.00
2019-01-03T08:08:53.924Z,128.00
2019-01-03T08:09:53.962Z,132.00
2019-01-03T08:10:53.995Z,140.00
2019-01-03T08:11:53.884Z,148.00
2019-01-03T08:12:53.895Z,164.00
2019-01-03T08:13:53.949Z,184.00
2019-01-03T08:14:53.888Z,204.00
2019-01-03T08:15:53.892Z,208.00
2019-01-03T08:16:53.795Z,204.00
2019-01-03T08:17:53.816Z,196.00
2019-01-03T08:18:53.807Z,192.00
2019-01-03T08:19:53.793Z,196.00
2019-01-03T08:20:53.793Z,204.00
2019-01-03T08:21:53.773Z,216.00
2019-01-03T08:22:53.773Z,232.00
2019-01-03T08:23:53.714Z,256.00
2019-01-03T08:24:53.772Z,288.00
2019-01-03T08:25:53.678Z,328.00
2019-01-03T08:26:53.780Z,348.00
2019-01-03T08:27:53.706Z,336.00
2019-01-03T08:28:53.713Z,300.00
2019-01-03T08:29:53.701Z,260.00
2019-01-03T08:30:53.601Z,228.00
2019-01-03T08:31:53.610Z,208.00
2019-01-03T08:32:53.754Z,208.00
2019-01-03T08:33:53.647Z,216.00
2019-01-03T08:34:53.598Z,232.00
2019-01-03T08:35:53.626Z,240.00
2019-01-03T08:36:53.562Z,244.00
2019-01-03T08:37:53.665Z,240.00
2019-01-03T08:38:53.507Z,236.00
2019-01-03T08:39:53.559Z,236.00
2019-01-03T08:40:53.477Z,240.00
2019-01-03T08:41:53.489Z,248.00
2019-01-03T08:42:53.484Z,252.00
2019-01-03T08:43:53.479Z,260.00
2019-01-03T08:44:53.547Z,264.00
2019-01-03T08:45:53.418Z,264.00
2019-01-03T08:46:53.421Z,252.00
2019-01-03T08:47:53.514Z,244.00
2019-01-03T08:48:53.424Z,236.00
2019-01-03T08:49:53.366Z,224.00
2019-01-03T08:50:53.416Z,208.00
2019-01-03T08:51:53.385Z,200.00
2019-01-03T08:52:53.406Z,192.00
2019-01-03T08:53:53.336Z,204.00
2019-01-03T08:54:53.340Z,208.00
2019-01-03T08:55:53.321Z,216.00
2019-01-03T08:56:53.309Z,236.00
2019-01-03T08:57:53.320Z,248.00
2019-01-03T08:58:53.267Z,252.00
2019-01-03T09:00:01.906Z,256.00
2019-01-03T09:01:57.733Z,292.00
2019-01-03T09:02:57.704Z,324.00
2019-01-03T09:03:57.662Z,364.00
2019-01-03T09:04:57.684Z,420.00
2019-01-03T09:05:57.692Z,444.00
2019-01-03T09:06:57.694Z,440.00
2019-01-03T09:07:57.645Z,424.00
2019-01-03T09:08:57.608Z,416.00
2019-01-03T09:09:57.583Z,392.00
2019-01-03T09:10:57.598Z,360.00
2019-01-03T09:11:57.552Z,320.00
2019-01-03T09:12:57.611Z,308.00
2019-01-03T09:13:57.539Z,324.00
2019-01-03T09:14:57.511Z,348.00
2019-01-03T09:15:57.550Z,376.00
2019-01-03T09:16:57.534Z,408.00
2019-01-03T09:17:57.500Z,368.00
2019-01-03T09:18:57.532Z,360.00
2019-01-03T09:19:57.521Z,368.00
2019-01-03T09:20:57.435Z,384.00
2019-01-03T09:21:57.449Z,380.00
2019-01-03T09:22:57.444Z,392.00
2019-01-03T09:23:57.396Z,392.00
2019-01-03T09:24:57.381Z,384.00
2019-01-03T09:25:57.412Z,372.00
2019-01-03T09:27:05.049Z,356.00
2019-01-03T09:29:10.900Z,316.00
2019-01-03T09:30:01.810Z,304.00
2019-01-03T09:31:01.790Z,300.00
2019-01-03T09:32:01.775Z,284.00
2019-01-03T09:33:01.789Z,264.00
2019-01-03T09:34:01.765Z,256.00
2019-01-03T09:35:01.772Z,260.00
2019-01-03T09:36:01.744Z,260.00
2019-01-03T09:37:01.739Z,268.00
2019-01-03T09:38:01.730Z,276.00
2019-01-03T09:39:01.673Z,272.00
2019-01-03T09:40:01.694Z,272.00
2019-01-03T09:41:01.675Z,264.00
2019-01-03T09:42:01.637Z,272.00
2019-01-03T09:43:01.625Z,276.00
2019-01-03T09:44:01.611Z,288.00
2019-01-03T09:45:01.624Z,304.00
2019-01-03T09:46:01.606Z,328.00
2019-01-03T09:47:01.591Z,336.00
2019-01-03T09:48:01.554Z,340.00
2019-01-03T09:49:01.590Z,324.00
2019-01-03T09:50:01.538Z,304.00
2019-01-03T09:51:01.553Z,296.00
2019-01-03T09:52:01.550Z,296.00
2019-01-03T09:53:01.532Z,304.00
2019-01-03T09:54:01.478Z,316.00
2019-01-03T09:55:01.476Z,316.00
2019-01-03T09:56:01.459Z,316.00
2019-01-03T09:57:01.489Z,304.00
2019-01-03T09:58:01.433Z,300.00
2019-01-03T09:59:01.435Z,292.00
2019-01-03T10:00:01.418Z,296.00
2019-01-03T10:01:01.388Z,280.00
2019-01-03T10:02:01.464Z,268.00
2019-01-03T10:03:01.404Z,260.00
2019-01-03T10:04:10.032Z,252.00
2019-01-03T10:05:54.790Z,232.00
2019-01-03T10:06:54.760Z,240.00
2019-01-03T10:07:54.749Z,268.00
2019-01-03T10:08:54.713Z,284.00
2019-01-03T10:09:54.682Z,292.00
2019-01-03T10:10:54.714Z,296.00
2019-01-03T10:11:54.674Z,300.00
2019-01-03T10:12:54.638Z,296.00
2019-01-03T10:13:54.633Z,300.00
2019-01-03T10:14:54.644Z,300.00
2019-01-03T10:15:54.640Z,304.00
2019-01-03T10:16:54.630Z,296.00
2019-01-03T10:17:54.574Z,268.00
2019-01-03T10:18:54.581Z,252.00
2019-01-03T10:19:54.584Z,248.00
2019-01-03T10:20:54.568Z,252.00
2019-01-03T10:21:54.519Z,256.00
2019-01-03T10:22:54.566Z,260.00
2019-01-03T10:23:54.525Z,252.00
2019-01-03T10:24:54.480Z,244.00
2019-01-03T10:25:54.517Z,236.00
2019-01-03T10:26:54.460Z,224.00
2019-01-03T10:27:54.479Z,224.00
2019-01-03T10:28:54.434Z,240.00
2019-01-03T10:29:54.419Z,260.00
2019-01-03T10:30:54.430Z,304.00
2019-01-03T10:31:54.442Z,336.00
2019-01-03T10:32:54.385Z,352.00
2019-01-03T10:33:54.485Z,372.00
2019-01-03T10:34:54.358Z,380.00
2019-01-03T10:35:54.340Z,376.00
2019-01-03T10:36:54.364Z,368.00
2019-01-03T10:37:54.498Z,364.00
2019-01-03T10:38:54.308Z,344.00
2019-01-03T10:40:03.225Z,340.00
2019-01-03T10:41:58.921Z,328.00
2019-01-03T10:42:58.820Z,352.00
2019-01-03T10:43:58.723Z,372.00
2019-01-03T10:44:58.715Z,380.00
2019-01-03T10:45:58.738Z,392.00
2019-01-03T10:46:58.667Z,380.00
2019-01-03T10:47:59.416Z,356.00
2019-01-03T10:48:58.658Z,336.00
2019-01-03T10:49:58.673Z,340.00
2019-01-03T10:50:58.642Z,352.00
2019-01-03T10:51:58.604Z,372.00
2019-01-03T10:52:58.629Z,380.00
2019-01-03T10:53:58.596Z,384.00
2019-01-03T10:54:58.571Z,388.00
2019-01-03T10:55:58.590Z,384.00
2019-01-03T10:57:07.205Z,392.00
2019-01-03T10:59:04.066Z,400.00
2019-01-03T11:00:04.000Z,412.00
2019-01-03T11:01:03.986Z,420.00
2019-01-03T11:02:03.982Z,432.00
2019-01-03T11:03:03.961Z,452.00
2019-01-03T11:04:03.961Z,464.00
2019-01-03T11:05:03.941Z,488.00
2019-01-03T11:06:03.929Z,504.00
2019-01-03T11:07:03.907Z,508.00
2019-01-03T11:08:03.929Z,508.00
2019-01-03T11:09:03.903Z,492.00
2019-01-03T11:10:03.910Z,472.00
2019-01-03T11:11:03.858Z,456.00
2019-01-03T11:12:03.842Z,424.00
2019-01-03T11:13:03.837Z,400.00
2019-01-03T11:14:03.860Z,392.00
2019-01-03T11:15:03.821Z,392.00
2019-01-03T11:16:03.825Z,392.00
2019-01-03T11:17:03.791Z,396.00
2019-01-03T11:18:03.794Z,392.00
2019-01-03T11:19:03.756Z,396.00
2019-01-03T11:20:03.786Z,384.00
2019-01-03T11:21:03.792Z,364.00
2019-01-03T11:22:03.715Z,356.00
2019-01-03T11:23:03.715Z,368.00
2019-01-03T11:24:03.735Z,396.00
2019-01-03T11:25:03.703Z,412.00
2019-01-03T11:26:03.668Z,420.00
2019-01-03T11:27:03.652Z,408.00
2019-01-03T11:28:03.639Z,400.00
2019-01-03T11:29:03.620Z,408.00
2019-01-03T11:30:03.617Z,404.00
2019-01-03T11:31:03.601Z,404.00
2019-01-03T11:32:03.601Z,400.00
2019-01-03T11:33:03.573Z,392.00
2019-01-03T11:34:03.562Z,396.00
2019-01-03T11:35:03.547Z,392.00
2019-01-03T11:36:03.538Z,412.00
2019-01-03T11:37:03.573Z,424.00
2019-01-03T11:38:03.515Z,440.00
2019-01-03T11:39:03.498Z,440.00
2019-01-03T11:40:03.479Z,452.00
2019-01-03T11:41:03.481Z,476.00
2019-01-03T11:42:03.465Z,504.00
2019-01-03T11:43:03.455Z,508.00
2019-01-03T11:44:03.444Z,492.00
2019-01-03T11:45:03.422Z,500.00
2019-01-03T11:46:03.416Z,524.00
2019-01-03T11:47:03.393Z,540.00
2019-01-03T11:48:03.379Z,580.00
2019-01-03T11:49:03.368Z,672.00
2019-01-03T11:50:03.379Z,780.00
2019-01-03T11:51:03.358Z,840.00
2019-01-03T11:52:03.360Z,900.00
2019-01-03T11:53:03.318Z,920.00
2019-01-03T11:54:03.305Z,956.00
2019-01-03T11:55:03.296Z,968.00
2019-01-03T11:56:03.284Z,908.00
2019-01-03T11:57:03.302Z,904.00
2019-01-03T11:58:03.293Z,836.00
2019-01-03T11:59:03.339Z,756.00
2019-01-03T12:00:03.229Z,668.00
2019-01-03T12:01:03.247Z,592.00
2019-01-03T12:02:03.209Z,544.00
2019-01-03T12:03:03.225Z,524.00
2019-01-03T12:04:03.185Z,516.00
2019-01-03T12:05:03.172Z,528.00
2019-01-03T12:06:03.218Z,512.00
2019-01-03T12:07:03.166Z,500.00
2019-01-03T12:08:03.209Z,476.00
2019-01-03T12:09:03.192Z,452.00
2019-01-03T12:10:03.113Z,436.00
2019-01-03T12:11:03.092Z,428.00
2019-01-03T12:12:03.098Z,432.00
2019-01-03T12:13:03.078Z,456.00
2019-01-03T12:14:03.066Z,480.00
2019-01-03T12:15:03.043Z,496.00
2019-01-03T12:16:03.056Z,520.00
2019-01-03T12:17:03.033Z,544.00
2019-01-03T12:18:03.149Z,600.00
2019-01-03T12:19:03.141Z,700.00
2019-01-03T12:20:03.100Z,760.00
2019-01-03T12:21:03.206Z,792.00
2019-01-03T12:22:03.045Z,760.00
2019-01-03T12:23:03.067Z,708.00
2019-01-03T12:24:03.004Z,664.00
2019-01-03T12:25:03.324Z,592.00
2019-01-03T12:26:03.026Z,552.00
2019-01-03T12:27:03.010Z,528.00
2019-01-03T12:28:03.042Z,480.00
2019-01-03T12:29:02.967Z,436.00
2019-01-03T12:30:02.877Z,392.00
2019-01-03T12:31:02.843Z,392.00
2019-01-03T12:32:02.835Z,408.00
2019-01-03T12:33:02.819Z,456.00
2019-01-03T12:34:02.833Z,496.00
2019-01-03T12:35:02.791Z,520.00
2019-01-03T12:36:02.783Z,460.00
2019-01-03T12:37:02.782Z,408.00
2019-01-03T12:38:02.768Z,384.00
2019-01-03T12:39:02.806Z,368.00
2019-01-03T12:40:02.729Z,384.00
2019-01-03T12:41:02.719Z,432.00
2019-01-03T12:42:02.713Z,504.00
2019-01-03T12:43:02.699Z,588.00
2019-01-03T12:44:02.694Z,628.00
2019-01-03T12:45:02.694Z,688.00
2019-01-03T12:46:02.665Z,732.00
2019-01-03T12:47:02.641Z,784.00
2019-01-03T12:48:02.639Z,820.00
2019-01-03T12:49:02.617Z,784.00
2019-01-03T12:50:02.609Z,724.00
2019-01-03T12:51:02.597Z,700.00
2019-01-03T12:52:02.587Z,628.00
2019-01-03T12:53:02.567Z,568.00
2019-01-03T12:54:02.555Z,528.00
2019-01-03T12:55:02.561Z,504.00
2019-01-03T12:56:02.532Z,488.00
2019-01-03T12:57:02.523Z,508.00
2019-01-03T12:58:02.504Z,548.00
2019-01-03T12:59:02.494Z,568.00
2019-01-03T13:00:02.500Z,556.00
2019-01-03T13:01:02.466Z,548.00
2019-01-03T13:02:02.456Z,520.00
2019-01-03T13:03:02.438Z,476.00
2019-01-03T13:04:02.431Z,436.00
2019-01-03T13:05:02.428Z,396.00
2019-01-03T13:06:02.407Z,372.00
2019-01-03T13:07:02.401Z,356.00
2019-01-03T13:08:02.419Z,332.00
2019-01-03T13:09:02.369Z,356.00
2019-01-03T13:10:02.367Z,360.00
2019-01-03T13:11:02.336Z,360.00
2019-01-03T13:12:02.327Z,344.00
2019-01-03T13:13:02.315Z,348.00
2019-01-03T13:14:02.300Z,348.00
2019-01-03T13:15:02.291Z,340.00
2019-01-03T13:16:02.281Z,344.00
2019-01-03T13:17:02.268Z,336.00
2019-01-03T13:18:02.251Z,328.00
2019-01-03T13:19:02.241Z,324.00
2019-01-03T13:20:02.228Z,316.00
2019-01-03T13:21:02.218Z,300.00
2019-01-03T13:22:02.202Z,284.00
2019-01-03T13:23:02.187Z,268.00
2019-01-03T13:24:02.195Z,248.00
2019-01-03T13:25:02.169Z,228.00
2019-01-03T13:26:02.161Z,212.00
2019-01-03T13:27:02.147Z,212.00
2019-01-03T13:28:02.133Z,224.00
2019-01-03T13:29:02.131Z,232.00
2019-01-03T13:30:02.105Z,232.00
2019-01-03T13:31:02.086Z,228.00
2019-01-03T13:32:02.086Z,240.00
2019-01-03T13:33:02.066Z,248.00